createdAt,value
2023-02-22T00:00:06.577Z,23.57
2023-02-22T00:01:06.569Z,23.54
2023-02-22T00:02:06.598Z,23.57
2023-02-22T00:03:06.563Z,23.60
2023-02-22T00:04:06.529Z,23.56
2023-02-22T00:05:06.521Z,23.62
2023-02-22T00:06:06.523Z,23.60
2023-02-22T00:07:06.484Z,23.59
2023-02-22T00:08:06.469Z,23.59
2023-02-22T00:09:06.468Z,23.57
2023-02-22T00:10:06.456Z,23.60
2023-02-22T00:11:06.445Z,23.62
2023-02-22T00:12:06.440Z,23.63
2023-02-22T00:13:06.418Z,23.63
2023-02-22T00:14:06.417Z,23.60
2023-02-22T00:15:06.424Z,23.62
2023-02-22T00:16:06.526Z,23.62
2023-02-22T00:17:06.420Z,23.64
2023-02-22T00:18:06.424Z,23.60
2023-02-22T00:19:06.397Z,23.62
2023-02-22T00:20:06.407Z,23.59
2023-02-22T00:21:06.399Z,23.57
2023-02-22T00:22:06.378Z,23.61
2023-02-22T00:23:06.369Z,23.67
2023-02-22T00:24:06.375Z,23.66
2023-02-22T00:25:06.353Z,23.66
2023-02-22T00:26:06.380Z,23.63
2023-02-22T00:27:06.341Z,23.64
2023-02-22T00:28:06.301Z,23.63
2023-02-22T00:29:06.308Z,23.60
2023-02-22T00:30:06.348Z,23.61
2023-02-22T00:31:06.322Z,23.67
2023-02-22T00:32:06.312Z,23.56
2023-02-22T00:33:06.291Z,23.65
2023-02-22T00:34:06.272Z,23.63
2023-02-22T00:35:06.245Z,23.63
2023-02-22T00:36:06.262Z,23.63
2023-02-22T00:37:06.244Z,23.66
2023-02-22T00:38:06.236Z,23.63
2023-02-22T00:39:06.219Z,23.67
2023-02-22T00:40:06.201Z,23.72
2023-02-22T00:41:06.208Z,23.61
2023-02-22T00:42:06.171Z,23.68
2023-02-22T00:43:06.184Z,23.62
2023-02-22T00:44:06.149Z,23.63
2023-02-22T00:45:06.152Z,23.64
2023-02-22T00:46:06.256Z,23.66
2023-02-22T00:47:06.118Z,23.66
2023-02-22T00:48:06.115Z,23.65
2023-02-22T00:49:06.110Z,23.61
2023-02-22T00:50:06.091Z,23.67
2023-02-22T00:51:06.073Z,23.71
2023-02-22T00:52:06.067Z,23.66
2023-02-22T00:53:06.080Z,23.61
2023-02-22T00:54:06.054Z,23.64
2023-02-22T00:55:06.050Z,23.68
2023-02-22T00:56:06.012Z,23.67
2023-02-22T00:57:06.010Z,23.67
2023-02-22T00:58:05.991Z,23.68
2023-02-22T00:59:05.978Z,23.67
2023-02-22T01:00:05.982Z,23.70
2023-02-22T01:01:05.962Z,23.65
2023-02-22T01:02:05.971Z,23.68
2023-02-22T01:03:05.975Z,23.67
2023-02-22T01:04:05.916Z,23.71
2023-02-22T01:05:05.924Z,23.71
2023-02-22T01:06:05.889Z,23.73
2023-02-22T01:07:05.901Z,23.71
2023-02-22T01:08:05.870Z,23.73
2023-02-22T01:09:05.859Z,23.67
2023-02-22T01:10:05.845Z,23.67
2023-02-22T01:11:05.836Z,23.71
2023-02-22T01:12:05.818Z,23.70
2023-02-22T01:13:05.806Z,23.70
2023-02-22T01:14:05.784Z,23.70
2023-02-22T01:15:05.786Z,23.67
2023-02-22T01:16:05.752Z,23.71
2023-02-22T01:17:05.765Z,23.70
2023-02-22T01:18:05.718Z,23.73
2023-02-22T01:19:05.703Z,23.79
2023-02-22T01:20:05.678Z,23.74
2023-02-22T01:21:05.664Z,23.71
2023-02-22T01:22:05.696Z,23.74
2023-02-22T01:23:05.645Z,23.71
2023-02-22T01:24:05.647Z,23.72
2023-02-22T01:25:05.621Z,23.71
2023-02-22T01:26:05.617Z,23.73
2023-02-22T01:27:05.613Z,23.70
2023-02-22T01:28:05.591Z,23.71
2023-02-22T01:29:05.570Z,23.70
2023-02-22T01:30:05.589Z,23.77
2023-02-22T01:31:05.596Z,23.73
2023-02-22T01:32:05.598Z,23.71
2023-02-22T01:33:05.533Z,23.71
2023-02-22T01:34:05.526Z,23.72
2023-02-22T01:35:05.513Z,23.67
2023-02-22T01:36:05.494Z,23.75
2023-02-22T01:37:05.517Z,23.71
2023-02-22T01:38:05.475Z,23.70
2023-02-22T01:39:05.493Z,23.74
2023-02-22T01:40:05.467Z,23.71
2023-02-22T01:41:05.433Z,23.78
2023-02-22T01:42:05.435Z,23.75
2023-02-22T01:43:05.458Z,23.72
2023-02-22T01:44:05.435Z,23.72
2023-02-22T01:45:05.424Z,23.77
2023-02-22T01:46:05.467Z,23.75
2023-02-22T01:47:05.404Z,23.77
2023-02-22T01:48:05.402Z,23.75
2023-02-22T01:49:05.387Z,23.72
2023-02-22T01:50:05.385Z,23.72
2023-02-22T01:51:05.360Z,23.74
2023-02-22T01:52:05.361Z,23.79
2023-02-22T01:53:05.372Z,23.69
2023-02-22T01:54:05.335Z,23.76
2023-02-22T01:55:05.330Z,23.72
2023-02-22T01:56:05.311Z,23.80
2023-02-22T01:57:05.295Z,23.77
2023-02-22T01:58:05.321Z,23.76
2023-02-22T01:59:05.267Z,23.75
2023-02-22T02:00:05.274Z,23.74
2023-02-22T02:01:05.258Z,23.75
2023-02-22T02:02:05.245Z,23.72
2023-02-22T02:03:05.249Z,23.74
2023-02-22T02:04:05.255Z,23.71
2023-02-22T02:05:05.329Z,23.75
2023-02-22T02:06:05.189Z,23.74
2023-02-22T02:07:05.192Z,23.71
2023-02-22T02:08:05.201Z,23.79
2023-02-22T02:09:05.184Z,23.78
2023-02-22T02:10:05.161Z,23.79
2023-02-22T02:11:05.218Z,23.75
2023-02-22T02:12:05.151Z,23.78
2023-02-22T02:13:05.171Z,23.71
2023-02-22T02:14:05.156Z,23.74
2023-02-22T02:15:05.132Z,23.74
2023-02-22T02:16:05.131Z,23.75
2023-02-22T02:17:05.239Z,23.78
2023-02-22T02:18:05.145Z,23.80
2023-02-22T02:19:05.101Z,23.71
2023-02-22T02:20:05.101Z,23.71
2023-02-22T02:21:05.086Z,23.79
2023-02-22T02:22:05.087Z,23.72
2023-02-22T02:23:05.096Z,23.82
2023-02-22T02:24:05.083Z,23.76
2023-02-22T02:25:05.090Z,23.78
2023-02-22T02:26:05.074Z,23.84
2023-02-22T02:27:05.040Z,23.81
2023-02-22T02:28:05.045Z,23.75
2023-02-22T02:29:05.049Z,23.78
2023-02-22T02:30:05.030Z,23.74
2023-02-22T02:31:05.026Z,23.75
2023-02-22T02:32:05.090Z,23.78
2023-02-22T02:33:04.987Z,23.81
2023-02-22T02:34:04.992Z,23.75
2023-02-22T02:35:04.984Z,23.79
2023-02-22T02:36:04.970Z,23.74
2023-02-22T02:37:04.976Z,23.76
2023-02-22T02:38:04.948Z,23.78
2023-02-22T02:39:04.967Z,23.75
2023-02-22T02:40:04.978Z,23.60
2023-02-22T02:41:04.935Z,23.36
2023-02-22T02:42:04.901Z,22.49
2023-02-22T02:43:04.925Z,21.79
2023-02-22T02:44:04.899Z,21.42
2023-02-22T02:45:04.858Z,21.14
2023-02-22T02:46:04.874Z,20.81
2023-02-22T02:47:04.935Z,20.62
2023-02-22T02:48:04.873Z,20.39
2023-02-22T02:49:04.841Z,20.26
2023-02-22T02:50:04.841Z,20.12
2023-02-22T02:51:04.795Z,19.92
2023-02-22T02:52:04.769Z,19.79
2023-02-22T02:53:04.775Z,19.65
2023-02-22T02:54:04.763Z,19.49
2023-02-22T02:55:04.747Z,19.41
2023-02-22T02:56:04.713Z,19.32
2023-02-22T02:57:04.704Z,19.33
2023-02-22T02:58:04.711Z,19.18
2023-02-22T02:59:04.688Z,19.05
2023-02-22T03:00:04.690Z,19.11
2023-02-22T03:01:04.666Z,18.91
2023-02-22T03:02:04.667Z,18.83
2023-02-22T03:03:04.662Z,18.91
2023-02-22T03:04:04.677Z,18.91
2023-02-22T03:05:04.639Z,18.73
2023-02-22T03:06:04.636Z,18.76
2023-02-22T03:07:04.648Z,18.67
2023-02-22T03:08:04.609Z,18.70
2023-02-22T03:09:04.622Z,18.54
2023-02-22T03:10:04.605Z,18.51
2023-02-22T03:11:04.604Z,18.54
2023-02-22T03:12:04.581Z,18.53
2023-02-22T03:13:04.576Z,18.49
2023-02-22T03:14:04.579Z,18.37
2023-02-22T03:15:04.550Z,18.42
2023-02-22T03:16:04.634Z,18.37
2023-02-22T03:17:04.548Z,18.31
2023-02-22T03:18:04.554Z,18.23
2023-02-22T03:19:04.560Z,18.24
2023-02-22T03:20:04.525Z,18.32
2023-02-22T03:21:04.534Z,18.20
2023-02-22T03:22:04.526Z,18.23
2023-02-22T03:23:04.506Z,18.10
2023-02-22T03:24:04.507Z,18.04
2023-02-22T03:25:04.501Z,17.98
2023-02-22T03:26:04.488Z,17.90
2023-02-22T03:27:04.485Z,17.82
2023-02-22T03:28:04.484Z,17.81
2023-02-22T03:29:04.525Z,17.78
2023-02-22T03:30:04.475Z,17.82
2023-02-22T03:31:04.565Z,17.90
2023-02-22T03:32:04.471Z,17.82
2023-02-22T03:33:04.447Z,17.87
2023-02-22T03:34:04.502Z,17.82
2023-02-22T03:35:04.460Z,17.70
2023-02-22T03:36:04.458Z,17.77
2023-02-22T03:37:04.443Z,17.77
2023-02-22T03:38:04.449Z,17.63
2023-02-22T03:39:04.463Z,17.63
2023-02-22T03:40:04.463Z,17.56
2023-02-22T03:41:04.470Z,17.54
2023-02-22T03:42:04.448Z,17.54
2023-02-22T03:43:04.461Z,17.59
2023-02-22T03:44:04.453Z,17.54
2023-02-22T03:45:04.476Z,17.57
2023-02-22T03:46:04.470Z,17.54
2023-02-22T03:47:04.480Z,17.52
2023-02-22T03:48:04.448Z,17.61
2023-02-22T03:49:04.455Z,17.49
2023-02-22T03:50:04.453Z,17.47
2023-02-22T03:51:04.501Z,17.44
2023-02-22T03:52:04.477Z,17.47
2023-02-22T03:53:04.457Z,17.49
2023-02-22T03:54:04.445Z,17.53
2023-02-22T03:55:04.453Z,17.44
2023-02-22T03:56:04.457Z,17.44
2023-02-22T03:57:04.451Z,17.45
2023-02-22T03:58:04.432Z,17.47
2023-02-22T03:59:04.432Z,17.45
2023-02-22T04:00:04.455Z,17.52
2023-02-22T04:01:04.459Z,17.45
2023-02-22T04:02:04.421Z,17.48
2023-02-22T04:03:04.473Z,17.41
2023-02-22T04:04:04.436Z,17.44
2023-02-22T04:05:04.446Z,17.50
2023-02-22T04:06:04.416Z,17.41
2023-02-22T04:07:04.384Z,17.45
2023-02-22T04:08:05.132Z,17.50
2023-02-22T04:09:04.442Z,17.38
2023-02-22T04:10:04.397Z,17.42
2023-02-22T04:11:04.380Z,17.49
2023-02-22T04:12:04.364Z,17.47
2023-02-22T04:13:04.372Z,17.40
2023-02-22T04:14:04.346Z,17.44
2023-02-22T04:15:04.376Z,17.86
2023-02-22T04:16:04.357Z,17.29
2023-02-22T04:17:04.337Z,17.26
2023-02-22T04:18:04.333Z,17.24
2023-02-22T04:19:04.339Z,17.18
2023-02-22T04:20:04.332Z,17.27
2023-02-22T04:21:04.336Z,17.27
2023-02-22T04:22:04.298Z,17.38
2023-02-22T04:23:04.321Z,17.24
2023-02-22T04:24:04.270Z,17.12
2023-02-22T04:25:04.287Z,17.23
2023-02-22T04:26:04.283Z,17.21
2023-02-22T04:27:04.241Z,17.01
2023-02-22T04:28:04.238Z,17.30
2023-02-22T04:29:04.267Z,17.43
2023-02-22T04:30:04.255Z,17.39
2023-02-22T04:31:04.327Z,17.03
2023-02-22T04:32:04.260Z,16.85
2023-02-22T04:33:04.213Z,16.83
2023-02-22T04:34:04.214Z,16.81
2023-02-22T04:35:04.215Z,16.84
2023-02-22T04:36:04.233Z,16.81
2023-02-22T04:37:04.197Z,16.89
2023-02-22T04:38:04.220Z,16.84
2023-02-22T04:39:04.174Z,16.92
2023-02-22T04:40:04.178Z,16.95
2023-02-22T04:41:04.173Z,16.96
2023-02-22T04:42:04.187Z,17.03
2023-02-22T04:43:04.188Z,17.12
2023-02-22T04:44:04.176Z,17.30
2023-02-22T04:45:04.188Z,16.98
2023-02-22T04:46:04.184Z,17.03
2023-02-22T04:47:04.179Z,16.98
2023-02-22T04:48:04.189Z,16.87
2023-02-22T04:49:04.159Z,16.87
2023-02-22T04:50:04.144Z,16.98
2023-02-22T04:51:04.207Z,17.01
2023-02-22T04:52:04.135Z,16.84
2023-02-22T04:53:04.143Z,16.92
2023-02-22T04:54:04.142Z,16.98
2023-02-22T04:55:04.129Z,16.81
2023-02-22T04:56:04.118Z,17.01
2023-02-22T04:57:04.114Z,16.74
2023-02-22T04:58:04.084Z,16.80
2023-02-22T04:59:04.098Z,16.72
2023-02-22T05:00:04.095Z,16.81
2023-02-22T05:01:04.099Z,16.72
2023-02-22T05:02:04.091Z,16.75
2023-02-22T05:03:04.076Z,16.54
2023-02-22T05:04:04.083Z,16.58
2023-02-22T05:05:04.114Z,16.66
2023-02-22T05:06:04.122Z,16.66
2023-02-22T05:07:04.091Z,16.69
2023-02-22T05:08:04.082Z,16.65
2023-02-22T05:09:04.073Z,16.55
2023-02-22T05:10:04.107Z,16.51
2023-02-22T05:11:04.100Z,16.59
2023-02-22T05:12:04.060Z,16.52
2023-02-22T05:13:04.341Z,16.32
2023-02-22T05:14:04.060Z,16.40
2023-02-22T05:15:04.060Z,16.43
2023-02-22T05:16:04.127Z,16.40
2023-02-22T05:17:04.039Z,16.49
2023-02-22T05:18:04.035Z,16.58
2023-02-22T05:19:04.003Z,16.52
2023-02-22T05:20:04.014Z,16.41
2023-02-22T05:21:04.018Z,16.60
2023-02-22T05:22:04.011Z,17.22
2023-02-22T05:23:04.007Z,16.80
2023-02-22T05:24:03.984Z,15.77
2023-02-22T05:25:03.986Z,15.61
2023-02-22T05:26:03.989Z,15.00
2023-02-22T05:27:04.027Z,14.84
2023-02-22T05:28:03.999Z,14.82
2023-02-22T07:22:04.804Z,24.14
2023-02-22T07:23:04.822Z,24.14
2023-02-22T07:24:05.588Z,24.19
2023-02-22T07:25:04.861Z,24.57
2023-02-22T07:26:04.818Z,24.53
2023-02-22T07:27:04.811Z,24.63
2023-02-22T07:28:04.792Z,24.46
2023-02-22T07:29:04.786Z,24.39
2023-02-22T07:30:04.840Z,24.65
2023-02-22T07:31:04.757Z,24.58
2023-02-22T07:32:04.731Z,24.93
2023-02-22T07:33:04.766Z,24.68
2023-02-22T07:34:04.683Z,24.73
2023-02-22T07:35:04.662Z,24.60
2023-02-22T07:36:04.632Z,24.82
2023-02-22T07:37:04.626Z,24.88
2023-02-22T07:38:04.682Z,24.79
2023-02-22T07:39:04.589Z,25.04
2023-02-22T07:40:04.567Z,24.81
2023-02-22T07:41:04.544Z,24.98
2023-02-22T07:42:04.518Z,25.27
2023-02-22T07:43:06.844Z,25.38
2023-02-22T07:44:04.705Z,25.26
2023-02-22T07:45:04.702Z,25.24
2023-02-22T07:46:04.751Z,24.58
2023-02-22T07:47:04.643Z,24.77
2023-02-22T07:48:04.639Z,25.07
2023-02-22T07:49:04.615Z,24.91
2023-02-22T07:50:04.616Z,24.91
2023-02-22T07:51:04.567Z,25.04
2023-02-22T07:52:04.573Z,25.04
2023-02-22T07:53:04.549Z,24.95
2023-02-22T07:54:04.528Z,24.94
2023-02-22T07:55:04.513Z,25.19
2023-02-22T07:56:04.470Z,25.07
2023-02-22T07:57:04.440Z,25.07
2023-02-22T07:58:04.452Z,24.98
2023-02-22T07:59:04.400Z,25.13
2023-02-22T08:00:04.410Z,24.99
2023-02-22T08:01:04.375Z,25.16
2023-02-22T08:02:04.339Z,25.18
2023-02-22T08:03:04.335Z,25.28
2023-02-22T08:04:04.324Z,25.30
2023-02-22T08:06:04.251Z,25.37
2023-02-22T08:07:04.234Z,25.36
2023-02-22T08:08:04.206Z,25.46
2023-02-22T08:09:04.171Z,25.54
2023-02-22T08:10:04.165Z,25.31
2023-02-22T08:11:04.126Z,25.31
2023-02-22T08:12:04.098Z,25.40
2023-02-22T08:13:04.104Z,25.12
2023-02-22T08:14:04.073Z,25.17
2023-02-22T08:15:04.078Z,25.20
2023-02-22T08:16:04.032Z,25.36
2023-02-22T08:17:04.076Z,25.47
2023-02-22T08:18:04.004Z,25.49
2023-02-22T08:19:03.980Z,25.47
2023-02-22T08:20:03.983Z,25.55
2023-02-22T08:21:03.953Z,25.57
2023-02-22T08:22:03.987Z,25.28
2023-02-22T08:23:03.919Z,25.23
2023-02-22T08:25:03.941Z,25.43
2023-02-22T08:26:03.926Z,25.52
2023-02-22T08:27:03.840Z,25.63
2023-02-22T08:28:03.881Z,25.31
2023-02-22T08:29:03.837Z,25.38
2023-02-22T08:30:03.883Z,25.54
2023-02-22T08:31:03.830Z,25.52
2023-02-22T08:32:03.939Z,25.50
2023-02-22T08:33:03.997Z,24.23
2023-02-22T08:34:03.732Z,23.91
2023-02-22T08:35:03.725Z,22.78
2023-02-22T08:36:03.755Z,22.53
2023-02-22T08:37:03.739Z,22.44
2023-02-22T08:38:03.964Z,22.05
2023-02-22T08:39:03.653Z,21.10
2023-02-22T08:40:03.717Z,20.86
2023-02-22T08:41:03.686Z,20.84
2023-02-22T08:42:03.622Z,19.98
2023-02-22T08:43:03.597Z,19.37
2023-02-22T08:44:04.628Z,19.17
2023-02-22T08:45:03.728Z,18.93
2023-02-22T08:46:04.341Z,19.39
2023-02-22T08:47:03.731Z,18.64
2023-02-22T08:48:03.550Z,18.86
2023-02-22T08:49:03.590Z,18.42
2023-02-22T08:50:03.576Z,18.43
2023-02-22T08:51:03.577Z,18.10
2023-02-22T08:52:03.607Z,17.93
2023-02-22T08:53:03.604Z,17.80
2023-02-22T08:54:03.539Z,17.83
2023-02-22T08:55:03.564Z,17.63
2023-02-22T08:56:03.658Z,17.92
2023-02-22T08:57:03.560Z,18.06
2023-02-22T08:58:03.593Z,17.84
2023-02-22T08:59:03.566Z,17.96
2023-02-22T09:00:03.574Z,17.79
2023-02-22T09:01:03.580Z,17.73
2023-02-22T09:02:03.604Z,17.63
2023-02-22T09:03:03.565Z,17.71
2023-02-22T09:04:03.550Z,17.77
2023-02-22T09:05:03.563Z,18.06
2023-02-22T09:06:03.647Z,18.23
2023-02-22T09:07:03.549Z,17.67
2023-02-22T09:08:03.563Z,17.66
2023-02-22T09:09:03.897Z,17.36
2023-02-22T09:10:04.249Z,17.30
2023-02-22T09:11:03.977Z,17.51
2023-02-22T09:12:03.553Z,17.23
2023-02-22T09:13:03.545Z,17.57
2023-02-22T09:14:03.583Z,17.52
2023-02-22T09:15:03.563Z,17.24
2023-02-22T09:16:03.592Z,17.27
2023-02-22T09:17:05.639Z,17.02
2023-02-22T09:18:03.581Z,17.02
2023-02-22T09:19:03.572Z,16.86
2023-02-22T09:20:03.636Z,17.00
2023-02-22T09:21:03.625Z,17.04
2023-02-22T09:22:03.613Z,17.18
2023-02-22T09:23:03.597Z,17.01
2023-02-22T09:24:03.622Z,16.93
2023-02-22T09:25:15.849Z,17.07
2023-02-22T09:26:04.633Z,16.94
2023-02-22T09:27:03.653Z,17.11
2023-02-22T09:28:03.650Z,17.05
2023-02-22T09:29:03.665Z,17.34
2023-02-22T09:30:03.631Z,17.27
2023-02-22T09:31:03.673Z,16.69
2023-02-22T09:32:03.849Z,17.29
2023-02-22T09:33:03.838Z,17.12
2023-02-22T09:34:04.351Z,17.09
2023-02-22T09:35:03.676Z,17.21
2023-02-22T09:36:03.703Z,17.00
2023-02-22T09:37:03.702Z,17.03
2023-02-22T09:38:03.710Z,16.84
2023-02-22T09:39:03.719Z,16.60
2023-02-22T09:40:03.761Z,16.57
2023-02-22T09:41:03.732Z,16.64
2023-02-22T09:42:03.724Z,16.54
2023-02-22T09:43:03.767Z,16.61
2023-02-22T09:44:03.760Z,16.47
2023-02-22T09:45:03.721Z,16.27
2023-02-22T09:46:03.802Z,16.86
2023-02-22T09:47:03.774Z,17.06
2023-02-22T09:48:19.428Z,17.69
2023-02-22T09:49:04.732Z,17.76
2023-02-22T09:50:03.761Z,17.76
2023-02-22T09:51:04.491Z,17.95
2023-02-22T09:52:03.771Z,17.84
2023-02-22T09:53:03.714Z,18.32
2023-02-22T09:54:03.716Z,18.53
2023-02-22T09:55:03.724Z,18.25
2023-02-22T09:56:03.736Z,17.69
2023-02-22T09:57:03.745Z,17.12
2023-02-22T09:58:03.732Z,17.02
2023-02-22T09:59:03.715Z,16.63
2023-02-22T10:00:03.738Z,16.69
2023-02-22T10:01:03.709Z,16.61
2023-02-22T10:02:03.786Z,16.26
2023-02-22T10:03:03.716Z,16.04
2023-02-22T10:04:04.368Z,15.98
2023-02-22T10:05:03.765Z,16.01
2023-02-22T10:06:03.698Z,16.10
2023-02-22T10:07:03.791Z,16.21
2023-02-22T10:08:03.703Z,16.33
2023-02-22T10:09:03.719Z,16.33
2023-02-22T10:10:03.694Z,15.90
2023-02-22T10:11:03.717Z,16.13
2023-02-22T10:12:03.713Z,15.93
2023-02-22T10:13:03.700Z,16.07
2023-02-22T10:14:03.698Z,15.99
2023-02-22T10:15:03.697Z,15.91
2023-02-22T10:16:03.709Z,15.96
2023-02-22T10:17:03.760Z,16.06
2023-02-22T10:18:03.714Z,16.07
2023-02-22T10:19:03.751Z,15.85
2023-02-22T10:20:03.726Z,15.84
2023-02-22T10:21:03.732Z,16.17
2023-02-22T10:22:03.766Z,15.99
2023-02-22T10:23:03.743Z,15.98
2023-02-22T10:24:03.748Z,15.98
2023-02-22T10:25:03.813Z,15.85
2023-02-22T10:26:03.755Z,15.77
2023-02-22T10:27:03.779Z,15.73
2023-02-22T10:28:03.894Z,15.99
2023-02-22T10:29:03.786Z,16.21
2023-02-22T10:30:12.708Z,16.13
2023-02-22T10:31:04.986Z,16.53
2023-02-22T10:32:03.868Z,16.60
2023-02-22T10:33:03.798Z,17.14
2023-02-22T10:34:03.777Z,17.16
2023-02-22T10:35:03.782Z,17.44
2023-02-22T10:36:03.764Z,17.44
2023-02-22T10:37:03.796Z,17.52
2023-02-22T10:38:03.755Z,17.81
2023-02-22T10:39:03.749Z,17.64
2023-02-22T10:40:03.774Z,17.74
2023-02-22T10:41:03.812Z,18.01
2023-02-22T10:42:03.756Z,18.12
2023-02-22T10:43:03.723Z,18.10
2023-02-22T10:44:03.756Z,18.15
2023-02-22T10:45:03.764Z,18.71
2023-02-22T10:46:03.739Z,18.19
2023-02-22T10:47:03.709Z,18.67
2023-02-22T10:48:03.705Z,18.70
2023-02-22T10:49:03.703Z,18.77
2023-02-22T10:50:03.667Z,18.70
2023-02-22T10:51:03.695Z,18.46
2023-02-22T10:52:03.707Z,18.29
2023-02-22T10:53:03.680Z,18.53
2023-02-22T10:54:03.658Z,18.65
2023-02-22T10:55:14.964Z,18.42
2023-02-22T10:56:04.660Z,18.74
2023-02-22T10:57:03.627Z,18.68
2023-02-22T10:58:03.608Z,18.84
2023-02-22T10:59:03.593Z,18.71
2023-02-22T11:00:03.575Z,18.58
2023-02-22T11:01:03.579Z,18.47
2023-02-22T11:02:03.580Z,18.45
2023-02-22T11:03:03.601Z,18.44
2023-02-22T11:04:03.542Z,18.46
2023-02-22T11:05:03.567Z,18.41
2023-02-22T11:06:05.209Z,18.41
2023-02-22T11:07:03.517Z,18.40
2023-02-22T11:08:03.593Z,18.42
2023-02-22T11:09:03.514Z,18.39
2023-02-22T11:10:03.508Z,18.43
2023-02-22T11:11:03.487Z,18.39
2023-02-22T11:12:03.478Z,18.37
2023-02-22T11:13:03.476Z,18.39
2023-02-22T11:14:03.448Z,18.42
2023-02-22T11:15:03.477Z,18.36
2023-02-22T11:16:03.474Z,18.33
2023-02-22T11:17:03.442Z,18.42
2023-02-22T11:18:03.434Z,18.37
2023-02-22T11:19:03.440Z,18.37
2023-02-22T11:20:03.417Z,18.42
2023-02-22T11:21:03.412Z,18.32
2023-02-22T11:22:03.405Z,18.41
2023-02-22T11:23:03.418Z,18.36
2023-02-22T11:24:03.389Z,18.38
2023-02-22T11:25:03.369Z,18.44
2023-02-22T11:26:03.351Z,18.41
2023-02-22T11:27:03.356Z,18.41
2023-02-22T11:28:03.353Z,18.42
2023-02-22T11:29:03.338Z,18.52
2023-02-22T11:30:05.619Z,18.49
2023-02-22T11:31:03.465Z,18.52
2023-02-22T11:32:03.406Z,18.47
2023-02-22T11:33:03.401Z,18.49
2023-02-22T11:34:03.385Z,18.51
2023-02-22T11:35:09.128Z,18.54
2023-02-22T11:36:04.356Z,18.60
2023-02-22T11:37:03.318Z,18.60
2023-02-22T11:38:03.324Z,18.58
2023-02-22T11:39:03.328Z,18.69
2023-02-22T11:40:03.309Z,18.69
2023-02-22T11:41:03.333Z,18.68
2023-02-22T11:42:03.307Z,18.71
2023-02-22T11:43:03.293Z,18.68
2023-02-22T11:44:03.285Z,18.71
2023-02-22T11:45:03.273Z,18.71
2023-02-22T11:46:03.306Z,18.76
2023-02-22T11:47:03.252Z,18.78
2023-02-22T11:48:03.274Z,18.76
2023-02-22T11:49:03.295Z,18.79
2023-02-22T11:50:03.243Z,18.78
2023-02-22T11:51:03.232Z,18.79
2023-02-22T11:52:03.231Z,18.85
2023-02-22T11:53:03.221Z,18.82
2023-02-22T12:10:03.094Z,19.01
2023-02-22T14:08:02.070Z,21.23
2023-02-22T14:09:02.061Z,21.15
2023-02-22T14:10:02.030Z,21.06
2023-02-22T14:11:02.065Z,20.92
2023-02-22T14:12:02.035Z,20.84
2023-02-22T14:13:02.000Z,20.81
2023-02-22T14:14:02.004Z,20.75
2023-02-22T14:15:01.994Z,20.66
2023-02-22T14:16:02.057Z,20.60
2023-02-22T14:17:01.957Z,20.54
2023-02-22T14:18:01.984Z,20.45
2023-02-22T14:19:01.919Z,20.35
2023-02-22T14:20:02.018Z,20.41
2023-02-22T14:21:01.925Z,20.35
2023-02-22T14:22:01.948Z,20.32
2023-02-22T14:23:01.937Z,20.32
2023-02-22T14:24:01.851Z,20.29
2023-02-22T14:25:01.836Z,20.37
2023-02-22T14:26:01.817Z,20.33
2023-02-22T14:27:01.775Z,20.31
2023-02-22T14:28:01.792Z,20.30
2023-02-22T14:29:01.763Z,20.32
2023-02-22T14:30:01.739Z,20.33
2023-02-22T14:31:01.793Z,20.25
2023-02-22T14:32:01.755Z,20.36
2023-02-22T14:33:01.714Z,20.22
2023-02-22T14:34:01.663Z,20.27
2023-02-22T14:35:01.669Z,20.26
2023-02-22T14:36:01.723Z,20.26
2023-02-22T14:37:01.644Z,20.26
2023-02-22T14:38:01.634Z,20.24
2023-02-22T14:39:01.593Z,20.21
2023-02-22T14:40:01.593Z,20.18
2023-02-22T14:41:01.565Z,20.24
2023-02-22T14:42:01.654Z,20.20
2023-02-22T14:43:01.520Z,20.21
2023-02-22T14:44:01.659Z,20.17
2023-02-22T14:45:01.525Z,20.18
2023-02-22T14:47:49.542Z,20.24
2023-02-22T14:48:49.413Z,20.27
2023-02-22T14:49:49.413Z,20.21
2023-02-22T14:50:49.385Z,20.22
2023-02-22T14:51:49.353Z,20.26
2023-02-22T14:52:49.300Z,20.21
2023-02-22T14:53:49.295Z,20.27
2023-02-22T14:54:49.242Z,20.26
2023-02-22T14:55:49.229Z,20.18
2023-02-22T14:56:49.220Z,20.26
2023-02-22T14:57:51.174Z,20.28
2023-02-22T14:58:49.130Z,20.28
2023-02-22T14:59:49.256Z,20.28
2023-02-22T15:00:49.059Z,20.28
2023-02-22T15:02:02.264Z,20.32
2023-02-22T15:02:50.049Z,20.33
2023-02-22T15:03:53.657Z,20.31
2023-02-22T15:04:49.955Z,20.34
2023-02-22T15:05:48.905Z,20.31
2023-02-22T15:06:48.856Z,20.37
2023-02-22T15:07:48.890Z,20.43
2023-02-22T15:08:49.050Z,20.43
2023-02-22T15:09:48.752Z,20.45
2023-02-22T15:10:48.710Z,20.46
2023-02-22T15:11:48.692Z,20.46
2023-02-22T15:12:48.647Z,20.46
2023-02-22T15:13:48.621Z,20.52
2023-02-22T15:14:48.566Z,20.52
2023-02-22T15:15:49.653Z,20.53
2023-02-22T15:16:48.484Z,20.51
2023-02-22T15:17:48.465Z,20.58
2023-02-22T15:18:48.409Z,20.61
2023-02-22T15:19:48.412Z,20.53
2023-02-22T15:20:48.485Z,20.40
2023-02-22T15:21:48.294Z,20.42
2023-02-22T15:22:48.269Z,20.48
2023-02-22T15:23:48.895Z,20.40
2023-02-22T15:24:48.188Z,20.31
2023-02-22T15:25:48.167Z,20.36
2023-02-22T15:27:00.856Z,20.28
2023-02-22T15:27:49.118Z,20.33
2023-02-22T15:28:48.081Z,20.30
2023-02-22T15:29:48.034Z,20.36
2023-02-22T15:30:48.000Z,20.17
2023-02-22T15:31:48.622Z,20.23
2023-02-22T15:33:03.195Z,20.21
2023-02-22T15:33:48.916Z,20.21
2023-02-22T15:34:47.878Z,20.18
2023-02-22T15:35:47.869Z,20.15
2023-02-22T15:36:47.806Z,20.11
2023-02-22T15:37:47.882Z,20.15
2023-02-22T15:38:47.765Z,20.04
2023-02-22T15:39:47.857Z,20.01
2023-02-22T15:40:47.727Z,20.00
2023-02-22T15:41:47.660Z,19.86
2023-02-22T15:42:47.662Z,19.83
2023-02-22T15:43:47.621Z,19.83
2023-02-22T15:44:47.575Z,19.85
2023-02-22T15:45:47.602Z,19.83
2023-02-22T15:46:47.502Z,19.87
2023-02-22T15:47:47.504Z,19.85
2023-02-22T15:48:47.459Z,19.74
2023-02-22T15:49:47.434Z,19.79
2023-02-22T15:50:47.403Z,19.90
2023-02-22T15:51:47.365Z,19.85
2023-02-22T15:52:47.358Z,19.95
2023-02-22T15:53:47.330Z,19.94
2023-02-22T15:54:47.263Z,19.96
2023-02-22T15:55:47.247Z,19.93
2023-02-22T15:56:47.202Z,19.92
2023-02-22T15:57:47.170Z,19.98
2023-02-22T15:58:47.206Z,19.93
2023-02-22T15:59:47.124Z,19.91
2023-02-22T16:00:47.126Z,19.93
2023-02-22T16:01:47.148Z,19.88
2023-02-22T16:02:47.021Z,19.93
2023-02-22T16:03:47.011Z,19.98
2023-02-22T16:04:59.053Z,19.96
2023-02-22T16:05:47.930Z,20.04
2023-02-22T16:06:46.898Z,20.00
2023-02-22T16:07:46.889Z,20.05
2023-02-22T16:08:54.752Z,20.08
2023-02-22T16:09:47.805Z,20.13
2023-02-22T16:10:46.784Z,20.12
2023-02-22T16:11:46.754Z,20.16
2023-02-22T16:12:46.741Z,20.16
2023-02-22T16:13:46.739Z,20.17
2023-02-22T16:14:46.688Z,20.14
2023-02-22T16:15:46.638Z,20.17
2023-02-22T16:16:46.631Z,20.20
2023-02-22T16:18:00.930Z,20.16
2023-02-22T16:18:46.585Z,20.23
2023-02-22T16:19:46.512Z,20.18
2023-02-22T16:20:46.484Z,20.16
2023-02-22T16:21:46.466Z,20.23
2023-02-22T16:22:46.428Z,20.23
2023-02-22T16:23:46.411Z,20.23
2023-02-22T16:24:46.365Z,20.25
2023-02-22T16:25:46.353Z,20.21
2023-02-22T16:26:46.322Z,20.28
2023-02-22T16:27:46.265Z,20.24
2023-02-22T16:28:46.260Z,20.28
2023-02-22T16:29:46.242Z,20.21
2023-02-22T16:30:46.318Z,20.25
2023-02-22T16:31:46.281Z,20.23
2023-02-22T16:32:46.154Z,20.17
2023-02-22T16:33:46.631Z,20.23
2023-02-22T16:34:46.078Z,20.28
2023-02-22T16:35:46.016Z,20.23
2023-02-22T16:36:46.002Z,20.25
2023-02-22T16:37:45.960Z,20.20
2023-02-22T16:38:45.949Z,20.22
2023-02-22T16:39:45.880Z,20.25
2023-02-22T16:40:45.845Z,20.25
2023-02-22T16:41:45.802Z,20.17
2023-02-22T16:42:45.769Z,20.29
2023-02-22T16:43:45.803Z,20.26
2023-02-22T16:44:45.730Z,20.20
2023-02-22T16:45:45.754Z,20.20
2023-02-22T16:46:45.629Z,20.23
2023-02-22T16:47:45.611Z,20.23
2023-02-22T16:48:45.569Z,20.27
2023-02-22T16:49:45.546Z,20.22
2023-02-22T16:50:45.494Z,20.20
2023-02-22T16:51:45.455Z,20.17
2023-02-22T16:52:45.420Z,20.20
2023-02-22T16:53:45.393Z,20.31
2023-02-22T16:54:45.359Z,20.25
2023-02-22T16:55:45.323Z,20.31
2023-02-22T16:56:45.258Z,20.28
2023-02-22T16:57:45.217Z,20.29
2023-02-22T16:58:45.200Z,20.28
2023-02-22T16:59:45.219Z,20.29
2023-02-22T17:00:45.114Z,20.31
2023-02-22T17:01:45.179Z,20.26